Waddington, RAF Waddington (EGXW)

NameRAF Waddington
CityWaddington
CountryUnited Kingdom
ICAOEGXW
IATAWTN
Altitude70 m
CoordinatesGoogle Map
Live Air TrafficLiveATC.net
METAREGXW 121250Z 14012KT 9999 FEW018 06/02 Q1022 BLU NOSIG
2018-12-12 12:50:00 Wind: Southeast (140°) 6.17 m/s - Visibility: > 10000 m - Temperature: 6 °C - Dew point: 2 °C - Humidity: 75.8% - Pressure: 1022 hPa
Statistics

The table below shows the detailed information of all flights to/from Waddington, RAF Waddington (EGXW).